Time;durP1;ratioP1;P1;durP2;ratioP2;P2;SDS_P1;SDS_P2;PMS_P1;PMS_P2;Temp;Humidity;BMP_temperature;BMP_pressure;BME280_temperature;BME280_humidity;BME280_pressure;Samples;Min_cycle;Max_cycle;Signal;HPM_P1;HPM_P2
2022/01/09 00:01:36;;;;;;;5.00;3.23;;;6.00;99.90;;;;;;5081593;28;20034;-81
2022/01/09 00:04:02;;;;;;;4.80;3.37;;;6.00;99.90;;;;;;5115556;28;20035;-80
2022/01/09 00:06:27;;;;;;;4.80;2.93;;;6.00;99.90;;;;;;5097680;28;20032;-81
2022/01/09 00:08:53;;;;;;;4.67;3.00;;;6.00;99.90;;;;;;5093354;28;20032;-81
2022/01/09 00:11:25;;;;;;;4.17;2.60;;;6.10;99.90;;;;;;5086475;28;20028;-81
2022/01/09 00:13:55;;;;;;;5.80;3.13;;;6.00;99.90;;;;;;5095222;28;20093;-81
2022/01/09 00:16:21;;;;;;;3.67;2.60;;;6.10;99.90;;;;;;5061812;28;20085;-81
2022/01/09 00:18:48;;;;;;;6.13;2.57;;;6.10;99.90;;;;;;5094719;28;20525;-80
2022/01/09 00:21:14;;;;;;;3.80;2.40;;;6.10;99.90;;;;;;5094729;28;20026;-80
2022/01/09 00:23:42;;;;;;;4.43;2.70;;;6.10;99.90;;;;;;5077921;28;20123;-81
2022/01/09 00:26:08;;;;;;;4.60;3.10;;;6.10;99.90;;;;;;5078052;28;20024;-80
2022/01/09 00:28:34;;;;;;;5.47;3.17;;;6.10;99.90;;;;;;5094581;28;20024;-80
2022/01/09 00:31:01;;;;;;;5.90;4.20;;;6.10;99.90;;;;;;5094408;28;20039;-80
2022/01/09 00:33:27;;;;;;;4.93;2.97;;;6.10;99.90;;;;;;5094463;28;20071;-80
2022/01/09 00:35:52;;;;;;;5.67;2.97;;;6.00;99.90;;;;;;5094393;28;20028;-80
2022/01/09 00:38:18;;;;;;;5.30;3.70;;;6.10;99.90;;;;;;5077560;28;20032;-80
2022/01/09 00:40:45;;;;;;;6.73;3.37;;;6.10;99.90;;;;;;5077392;28;20093;-80
2022/01/09 00:43:11;;;;;;;5.47;3.40;;;6.10;99.90;;;;;;5094238;28;20081;-80
2022/01/09 00:45:37;;;;;;;5.77;3.83;;;6.20;99.90;;;;;;5094243;28;20491;-80
2022/01/09 00:48:04;;;;;;;6.30;3.60;;;6.00;99.90;;;;;;5077555;28;20051;-81
2022/01/09 00:50:30;;;;;;;5.60;3.40;;;6.10;99.90;;;;;;5077434;28;20039;-80
2022/01/09 00:52:56;;;;;;;5.67;3.57;;;6.10;99.90;;;;;;5061078;28;20056;-81
2022/01/09 00:55:22;;;;;;;7.93;4.27;;;6.10;99.90;;;;;;5094311;28;20073;-81
2022/01/09 00:57:48;;;;;;;5.90;3.77;;;6.10;99.90;;;;;;5077142;28;20024;-81
2022/01/09 01:00:14;;;;;;;6.73;4.40;;;6.10;99.90;;;;;;5060337;28;20485;-81
2022/01/09 01:02:40;;;;;;;6.90;4.30;;;6.00;99.90;;;;;;5076824;28;20119;-81
2022/01/09 01:05:07;;;;;;;7.27;4.00;;;6.00;99.90;;;;;;5095233;28;20099;-81
2022/01/09 01:07:33;;;;;;;7.07;4.23;;;6.00;99.90;;;;;;5093754;28;20023;-81
2022/01/09 01:09:58;;;;;;;7.10;4.63;;;6.00;99.90;;;;;;5076965;28;20028;-81
2022/01/09 01:12:26;;;;;;;7.33;4.27;;;6.00;99.90;;;;;;5091979;28;20024;-82
2022/01/09 01:14:52;;;;;;;7.33;4.63;;;6.00;99.90;;;;;;5114419;28;20020;-81
2022/01/09 01:17:18;;;;;;;6.40;4.00;;;6.00;99.90;;;;;;5080669;28;20034;-81
2022/01/09 01:19:44;;;;;;;6.37;4.17;;;6.00;99.90;;;;;;5096910;28;20028;-81
2022/01/09 01:22:10;;;;;;;6.67;4.03;;;6.00;99.90;;;;;;5080419;28;20038;-82
2022/01/09 01:24:37;;;;;;;9.47;4.90;;;6.00;99.90;;;;;;5097281;28;20024;-81
2022/01/09 01:27:03;;;;;;;7.67;3.70;;;6.00;99.90;;;;;;5080459;28;20024;-82
2022/01/09 01:29:29;;;;;;;10.70;3.63;;;6.00;99.90;;;;;;5096761;28;20027;-82
2022/01/09 01:31:54;;;;;;;11.13;3.00;;;6.00;99.90;;;;;;5096661;28;20110;-84
2022/01/09 01:34:20;;;;;;;20.17;3.53;;;6.00;99.90;;;;;;5113580;28;20107;-83
2022/01/09 01:36:46;;;;;;;22.50;3.13;;;6.00;99.90;;;;;;5113686;28;20044;-80
2022/01/09 01:39:11;;;;;;;14.57;2.90;;;6.00;99.90;;;;;;5096473;28;20365;-82
2022/01/09 01:41:37;;;;;;;10.57;2.47;;;6.10;99.90;;;;;;5096856;28;20085;-83
2022/01/09 01:44:08;;;;;;;18.77;3.07;;;6.10;99.90;;;;;;5113462;28;20054;-82
2022/01/09 01:46:34;;;;;;;16.40;3.27;;;6.10;99.90;;;;;;5097431;28;20034;-85
2022/01/09 01:48:59;;;;;;;12.23;2.60;;;6.10;99.90;;;;;;5113399;28;20414;-83
2022/01/09 01:51:25;;;;;;;16.67;2.40;;;6.10;99.90;;;;;;5079504;28;20444;-80
2022/01/09 01:53:54;;;;;;;23.97;2.60;;;6.10;99.90;;;;;;5095854;28;20045;-81
2022/01/09 01:56:21;;;;;;;23.40;4.20;;;6.10;99.90;;;;;;5080419;28;20028;-80
2022/01/09 01:58:48;;;;;;;16.67;2.30;;;6.10;99.90;;;;;;5096665;28;20106;-78
2022/01/09 02:01:14;;;;;;;24.67;2.90;;;6.10;99.90;;;;;;5113171;28;20115;-83
2022/01/09 02:03:39;;;;;;;18.57;3.03;;;6.10;99.90;;;;;;5114029;28;20053;-81
2022/01/09 02:06:05;;;;;;;25.30;3.47;;;6.00;99.90;;;;;;5096183;28;20387;-81
2022/01/09 02:08:32;;;;;;;25.37;3.07;;;6.00;99.90;;;;;;5096104;28;20464;-80
2022/01/09 02:10:58;;;;;;;24.27;3.20;;;6.10;99.90;;;;;;5114417;28;20106;-82
2022/01/09 02:13:23;;;;;;;18.77;3.37;;;6.20;99.90;;;;;;5113233;28;20055;-83
2022/01/09 02:15:49;;;;;;;25.63;3.70;;;6.10;99.90;;;;;;5079048;28;20031;-82
2022/01/09 02:18:20;;;;;;;27.70;4.30;;;6.10;99.90;;;;;;5114166;28;20034;-81
2022/01/09 02:20:48;;;;;;;29.33;5.33;;;6.30;99.90;;;;;;5113228;28;20031;-78
2022/01/09 02:23:15;;;;;;;52.60;6.27;;;6.20;99.90;;;;;;5096745;28;20019;-79
2022/01/09 02:25:41;;;;;;;51.90;7.80;;;6.30;99.90;;;;;;5112761;28;20016;-78
2022/01/09 02:28:08;;;;;;;44.83;7.30;;;6.20;99.90;;;;;;5112738;28;20023;-77
2022/01/09 02:30:34;;;;;;;53.40;6.53;;;6.20;99.90;;;;;;5113951;28;20471;-80
2022/01/09 02:33:02;;;;;;;42.83;7.43;;;6.30;99.90;;;;;;5112754;28;20084;-81
2022/01/09 02:35:28;;;;;;;46.73;6.43;;;6.30;99.90;;;;;;5096518;28;20031;-79
2022/01/09 02:37:53;;;;;;;48.00;7.03;;;6.30;99.90;;;;;;5112753;28;20433;-80
2022/01/09 02:40:19;;;;;;;51.40;6.80;;;6.30;99.90;;;;;;5112931;28;20023;-79
2022/01/09 02:42:45;;;;;;;39.37;6.93;;;6.30;99.90;;;;;;5078929;28;20019;-77
2022/01/09 02:45:11;;;;;;;47.63;6.57;;;6.40;99.90;;;;;;5078968;28;20069;-83
2022/01/09 02:47:38;;;;;;;51.00;7.77;;;6.30;99.90;;;;;;5095655;28;20024;-81
2022/01/09 02:50:15;;;;;;;45.80;5.77;;;6.40;99.90;;;;;;5113671;28;20119;-80
2022/01/09 02:55:37;;;;;;;51.00;7.83;;;6.40;99.90;;;;;;5097547;28;20130;-79
2022/01/09 02:58:02;;;;;;;40.07;6.90;;;6.40;99.90;;;;;;5112562;28;20062;-81
2022/01/09 03:00:31;;;;;;;47.33;7.47;;;6.30;99.90;;;;;;5112201;28;20478;-81
2022/01/09 03:02:58;;;;;;;56.70;7.33;;;6.40;99.90;;;;;;5112683;28;20024;-77
2022/01/09 03:05:24;;;;;;;43.70;6.83;;;6.30;99.90;;;;;;5116730;28;20020;-77
2022/01/09 03:07:50;;;;;;;35.13;5.33;;;6.40;99.90;;;;;;5099618;28;20100;-79
2022/01/09 03:10:18;;;;;;;45.43;6.40;;;6.30;99.90;;;;;;5116644;28;20042;-81
2022/01/09 03:12:44;;;;;;;41.00;5.40;;;6.40;99.90;;;;;;5099727;28;20031;-80
2022/01/09 03:15:11;;;;;;;41.47;5.50;;;6.40;99.90;;;;;;5099493;28;20023;-81
2022/01/09 03:17:37;;;;;;;40.40;6.70;;;6.40;99.90;;;;;;5116213;28;20502;-79
2022/01/09 03:20:05;;;;;;;46.17;6.50;;;6.30;99.90;;;;;;5116124;28;20030;-77
2022/01/09 03:22:31;;;;;;;40.57;5.63;;;6.30;99.90;;;;;;5116961;28;20107;-78
2022/01/09 03:24:56;;;;;;;36.43;5.80;;;6.30;99.90;;;;;;5099265;28;20043;-77
2022/01/09 03:27:22;;;;;;;38.03;4.83;;;6.30;99.90;;;;;;5116303;28;20019;-81
2022/01/09 03:29:48;;;;;;;47.30;5.93;;;6.30;99.90;;;;;;5082547;28;20034;-80
2022/01/09 03:32:13;;;;;;;43.00;7.63;;;6.40;99.90;;;;;;5116243;28;20059;-78
2022/01/09 03:34:39;;;;;;;38.40;6.93;;;6.40;99.90;;;;;;5099071;28;20024;-80
2022/01/09 03:37:06;;;;;;;44.80;5.50;;;6.30;99.90;;;;;;5116283;28;20034;-80
2022/01/09 03:39:32;;;;;;;45.17;6.67;;;6.30;99.90;;;;;;5095740;28;20028;-76
2022/01/09 03:41:59;;;;;;;41.00;5.10;;;6.30;99.90;;;;;;5096011;28;20406;-75
2022/01/09 03:44:28;;;;;;;39.23;6.33;;;6.30;99.90;;;;;;5079041;28;20390;-79
2022/01/09 03:46:54;;;;;;;40.73;6.03;;;6.40;99.90;;;;;;5095524;28;20069;-80
2022/01/09 03:49:21;;;;;;;33.57;5.03;;;6.30;99.90;;;;;;5095467;28;20383;-82
2022/01/09 03:51:50;;;;;;;30.53;4.50;;;6.40;99.90;;;;;;5095270;28;20472;-77
2022/01/09 03:54:16;;;;;;;30.17;5.27;;;6.40;99.90;;;;;;5095378;28;20548;-78
2022/01/09 03:56:42;;;;;;;27.00;3.73;;;6.30;99.90;;;;;;5095134;28;20039;-79
2022/01/09 03:59:08;;;;;;;44.70;5.27;;;6.40;99.90;;;;;;5095152;28;20507;-78
2022/01/09 04:01:33;;;;;;;34.20;5.73;;;6.40;99.90;;;;;;5095093;28;20028;-78
2022/01/09 04:03:59;;;;;;;32.60;5.43;;;6.50;99.90;;;;;;5078345;28;20122;-78
2022/01/09 04:06:25;;;;;;;21.83;4.43;;;6.40;99.90;;;;;;5095184;28;20039;-79
2022/01/09 04:08:54;;;;;;;29.40;5.63;;;6.40;99.90;;;;;;5102491;28;20164;-81
2022/01/09 04:11:26;;;;;;;26.27;3.90;;;6.30;99.90;;;;;;5116630;28;20028;-79
2022/01/09 04:13:53;;;;;;;36.17;5.67;;;6.30;99.90;;;;;;5099444;28;20382;-78
2022/01/09 04:16:18;;;;;;;32.73;6.13;;;6.30;99.90;;;;;;5097399;28;20023;-81
2022/01/09 04:18:44;;;;;;;28.77;4.20;;;6.30;99.90;;;;;;5115149;28;20506;-80
2022/01/09 04:21:10;;;;;;;37.77;5.30;;;6.30;99.90;;;;;;5081098;28;20486;-79
2022/01/09 04:23:36;;;;;;;31.70;3.57;;;6.30;99.90;;;;;;5097996;28;20077;-82
2022/01/09 04:26:01;;;;;;;20.87;3.60;;;6.30;99.90;;;;;;5097865;28;20077;-80
2022/01/09 04:28:27;;;;;;;32.53;4.87;;;6.30;99.90;;;;;;5094877;28;20024;-79
2022/01/09 04:30:53;;;;;;;33.60;4.83;;;6.30;99.90;;;;;;5103335;28;20395;-77
2022/01/09 04:33:19;;;;;;;37.37;4.53;;;6.30;99.90;;;;;;5121421;28;20462;-77
2022/01/09 04:35:45;;;;;;;26.87;3.77;;;6.30;99.90;;;;;;5119748;28;20027;-79
2022/01/09 04:38:11;;;;;;;22.27;3.00;;;6.30;99.90;;;;;;5121063;28;20403;-77
2022/01/09 04:40:36;;;;;;;30.33;3.67;;;6.30;99.90;;;;;;5098655;28;20028;-77
2022/01/09 04:43:05;;;;;;;31.23;4.17;;;6.30;99.90;;;;;;5115220;28;20035;-78
2022/01/09 04:45:31;;;;;;;35.03;3.93;;;6.30;99.90;;;;;;5116534;28;20565;-79
2022/01/09 04:48:04;;;;;;;21.17;3.87;;;6.30;99.90;;;;;;5098024;28;20103;-81
2022/01/09 04:50:32;;;;;;;22.27;3.17;;;6.20;99.90;;;;;;5098869;28;20039;-79
2022/01/09 04:53:04;;;;;;;22.10;3.03;;;6.20;99.90;;;;;;5115002;28;20027;-79
2022/01/09 04:55:32;;;;;;;25.17;3.47;;;6.20;99.90;;;;;;5098222;28;20109;-79
2022/01/09 04:57:58;;;;;;;22.83;3.00;;;6.20;99.90;;;;;;5097706;28;20430;-81
2022/01/09 05:00:25;;;;;;;23.80;2.80;;;6.20;99.90;;;;;;5114300;28;20391;-77
2022/01/09 05:02:51;;;;;;;24.77;3.33;;;6.20;99.90;;;;;;5114686;28;20108;-80
2022/01/09 05:05:18;;;;;;;23.13;3.50;;;6.20;99.90;;;;;;5097816;28;20467;-80
2022/01/09 05:07:44;;;;;;;22.13;2.77;;;6.20;99.90;;;;;;5114569;28;20379;-80
2022/01/09 05:10:11;;;;;;;25.07;2.47;;;6.20;99.90;;;;;;5114203;28;20028;-80
2022/01/09 05:12:37;;;;;;;18.57;2.50;;;6.20;99.90;;;;;;5080417;28;20133;-79
2022/01/09 05:15:05;;;;;;;19.60;2.70;;;6.30;99.90;;;;;;5114051;28;20040;-82
2022/01/09 05:17:31;;;;;;;23.37;2.93;;;6.20;99.90;;;;;;5096944;28;20051;-81
2022/01/09 05:19:57;;;;;;;20.80;3.53;;;6.20;99.90;;;;;;5113907;28;20483;-80
2022/01/09 05:22:32;;;;;;;22.63;3.17;;;6.10;99.90;;;;;;5114289;28;20383;-80
2022/01/09 05:24:58;;;;;;;28.93;3.10;;;6.10;99.90;;;;;;5097350;28;20023;-78
2022/01/09 05:27:25;;;;;;;22.87;3.70;;;6.10;99.90;;;;;;5113807;28;20488;-80
2022/01/09 05:29:51;;;;;;;26.47;3.57;;;6.10;99.90;;;;;;5114291;28;20375;-78
2022/01/09 05:32:17;;;;;;;22.50;3.27;;;6.10;99.90;;;;;;5113757;28;20030;-82
2022/01/09 05:34:43;;;;;;;22.27;2.70;;;6.00;99.90;;;;;;5114043;28;20035;-80
2022/01/09 05:37:09;;;;;;;20.40;2.47;;;6.00;99.90;;;;;;5113669;28;20475;-80
2022/01/09 05:39:35;;;;;;;18.53;2.30;;;6.00;99.90;;;;;;5113527;28;20077;-78
2022/01/09 05:42:04;;;;;;;26.33;3.27;;;6.00;99.90;;;;;;5113488;28;20023;-80
2022/01/09 05:44:31;;;;;;;15.90;2.97;;;6.00;99.90;;;;;;5113620;28;20498;-79
2022/01/09 05:46:58;;;;;;;17.97;3.07;;;5.90;99.90;;;;;;5113964;28;20034;-78
2022/01/09 05:49:23;;;;;;;27.07;2.93;;;5.90;99.90;;;;;;5096476;28;20466;-82
2022/01/09 05:51:49;;;;;;;26.00;3.30;;;5.90;99.90;;;;;;5079435;28;20103;-81
2022/01/09 05:54:15;;;;;;;24.43;3.60;;;5.90;99.90;;;;;;5113487;28;20028;-81
2022/01/09 05:56:40;;;;;;;18.07;2.60;;;5.90;99.90;;;;;;5112754;28;20048;-78
2022/01/09 05:59:06;;;;;;;27.33;2.37;;;5.90;99.90;;;;;;5113503;28;20101;-79
2022/01/09 06:01:32;;;;;;;21.13;3.87;;;5.90;99.90;;;;;;5096257;28;20052;-75
2022/01/09 06:03:57;;;;;;;22.80;3.07;;;5.90;99.90;;;;;;5096274;28;20077;-75
2022/01/09 06:06:23;;;;;;;24.77;3.30;;;6.00;99.90;;;;;;5096227;28;20468;-78
2022/01/09 06:08:49;;;;;;;22.70;3.10;;;5.90;99.90;;;;;;5079471;28;20051;-80
2022/01/09 06:11:14;;;;;;;19.30;3.07;;;5.90;99.90;;;;;;5096056;28;20080;-80
2022/01/09 06:13:40;;;;;;;20.33;2.43;;;6.00;99.90;;;;;;5096206;28;20432;-78
2022/01/09 06:16:07;;;;;;;19.37;2.47;;;5.90;99.90;;;;;;5062648;28;20020;-79
2022/01/09 06:18:32;;;;;;;25.93;2.63;;;6.00;99.90;;;;;;5092613;28;20145;-79
2022/01/09 06:20:58;;;;;;;19.50;2.83;;;6.00;99.90;;;;;;5093682;28;20575;-79
2022/01/09 06:23:24;;;;;;;17.60;2.27;;;5.90;99.90;;;;;;5092297;28;20020;-79
2022/01/09 06:25:51;;;;;;;15.50;2.23;;;5.90;99.90;;;;;;5085988;28;20028;-78
2022/01/09 06:28:17;;;;;;;21.40;3.10;;;5.80;99.90;;;;;;5092993;28;20131;-76
2022/01/09 06:30:43;;;;;;;16.93;2.90;;;5.80;99.90;;;;;;5093510;28;20508;-76
2022/01/09 06:33:10;;;;;;;16.13;2.90;;;5.80;99.90;;;;;;5092283;28;20103;-81
2022/01/09 06:35:36;;;;;;;20.93;2.70;;;5.80;99.90;;;;;;5107798;28;20081;-83
2022/01/09 06:38:02;;;;;;;23.20;2.30;;;5.80;99.90;;;;;;5112878;28;20032;-76
2022/01/09 06:40:28;;;;;;;18.00;2.00;;;5.80;99.90;;;;;;5113282;28;20043;-74
2022/01/09 06:42:54;;;;;;;9.13;1.53;;;5.80;99.90;;;;;;5096026;28;20024;-75
2022/01/09 06:45:22;;;;;;;18.33;2.77;;;5.80;99.90;;;;;;5092046;28;20161;-78
2022/01/09 06:47:48;;;;;;;12.90;2.03;;;5.70;99.90;;;;;;5075829;28;20039;-76
2022/01/09 06:50:14;;;;;;;18.33;2.33;;;5.70;99.90;;;;;;5093513;28;20025;-77
2022/01/09 06:52:41;;;;;;;19.87;2.10;;;5.70;99.90;;;;;;5105091;28;20045;-76
2022/01/09 06:55:08;;;;;;;16.70;1.77;;;5.60;99.90;;;;;;5091936;28;20031;-76
2022/01/09 06:57:34;;;;;;;14.67;2.67;;;5.60;99.90;;;;;;5101838;28;20067;-75
2022/01/09 07:00:00;;;;;;;12.33;2.10;;;5.60;99.90;;;;;;5092307;28;20055;-77
2022/01/09 07:02:26;;;;;;;15.80;2.40;;;5.60;99.90;;;;;;5103377;28;20100;-75
2022/01/09 07:04:52;;;;;;;14.57;2.23;;;5.50;99.90;;;;;;5112171;28;20424;-81
2022/01/09 07:07:17;;;;;;;18.47;2.77;;;5.50;99.90;;;;;;5095134;28;20088;-76
2022/01/09 07:09:43;;;;;;;15.87;2.03;;;5.50;99.90;;;;;;5095777;28;20055;-76
2022/01/09 07:12:09;;;;;;;13.13;1.73;;;5.50;99.90;;;;;;5095250;28;20048;-75
2022/01/09 07:14:35;;;;;;;13.73;1.77;;;5.40;99.90;;;;;;5095179;28;20032;-76
2022/01/09 07:17:01;;;;;;;20.17;2.37;;;5.40;99.90;;;;;;5113467;28;20024;-77
2022/01/09 07:19:27;;;;;;;13.13;3.00;;;5.50;99.90;;;;;;5112237;28;20118;-76
2022/01/09 07:21:53;;;;;;;15.00;2.17;;;5.50;99.90;;;;;;5095492;28;20115;-77
2022/01/09 07:24:18;;;;;;;13.60;2.00;;;5.40;99.90;;;;;;5095116;28;20020;-78
2022/01/09 07:26:44;;;;;;;14.63;2.27;;;5.40;99.90;;;;;;5112200;28;20024;-76
2022/01/09 07:29:10;;;;;;;10.90;2.03;;;5.40;99.90;;;;;;5095211;28;20047;-77
2022/01/09 07:31:35;;;;;;;19.83;2.50;;;5.30;99.90;;;;;;5095268;28;20062;-77
2022/01/09 07:34:01;;;;;;;20.37;3.17;;;5.40;99.90;;;;;;5095679;28;20039;-75
2022/01/09 07:36:27;;;;;;;11.63;1.53;;;5.30;99.90;;;;;;5095574;28;20027;-78
2022/01/09 07:38:52;;;;;;;13.73;1.60;;;5.40;99.90;;;;;;5078235;28;20745;-77
2022/01/09 07:41:18;;;;;;;11.53;2.00;;;5.30;99.90;;;;;;5112228;28;20376;-78
2022/01/09 07:43:44;;;;;;;9.07;1.50;;;5.20;99.90;;;;;;5095692;28;20026;-81
2022/01/09 07:46:10;;;;;;;12.07;1.70;;;5.30;99.90;;;;;;5095190;28;20114;-77
2022/01/09 07:48:35;;;;;;;17.43;2.10;;;5.20;99.90;;;;;;5112197;28;20031;-79
2022/01/09 07:51:01;;;;;;;11.63;1.70;;;5.30;99.90;;;;;;5079107;28;20027;-83
2022/01/09 07:53:27;;;;;;;11.03;1.70;;;5.10;99.90;;;;;;5082357;28;20395;-80
2022/01/09 07:55:54;;;;;;;15.10;1.80;;;5.10;99.80;;;;;;5116597;28;20047;-81
2022/01/09 07:58:20;;;;;;;10.40;1.80;;;5.10;99.80;;;;;;5116980;28;20100;-79
2022/01/09 08:00:45;;;;;;;14.93;1.83;;;5.00;99.80;;;;;;5098392;28;20483;-80
2022/01/09 08:03:12;;;;;;;14.47;1.60;;;5.00;99.80;;;;;;5098527;28;20376;-80
2022/01/09 08:05:38;;;;;;;13.20;1.33;;;5.00;99.90;;;;;;5116588;28;20038;-80
2022/01/09 08:08:07;;;;;;;18.27;1.43;;;5.00;99.90;;;;;;5115145;28;20028;-82
2022/01/09 08:10:33;;;;;;;11.20;2.20;;;4.90;99.90;;;;;;5097736;28;20016;-78
2022/01/09 08:13:00;;;;;;;13.03;1.33;;;4.90;99.80;;;;;;5094864;28;20390;-81
2022/01/09 08:15:27;;;;;;;7.53;1.30;;;4.90;99.80;;;;;;5095300;28;20468;-80
2022/01/09 08:17:54;;;;;;;13.90;1.50;;;4.90;99.80;;;;;;5096152;28;20028;-82
2022/01/09 08:20:20;;;;;;;12.20;1.67;;;4.90;99.80;;;;;;5094785;28;20416;-80
2022/01/09 08:22:46;;;;;;;8.60;1.30;;;4.90;99.90;;;;;;5094976;28;20073;-81
2022/01/09 08:25:13;;;;;;;12.47;1.40;;;4.90;99.80;;;;;;5094526;28;20023;-80
2022/01/09 08:27:40;;;;;;;22.33;2.00;;;5.00;99.90;;;;;;5094503;28;20384;-78
2022/01/09 08:30:07;;;;;;;13.13;1.97;;;5.00;99.90;;;;;;5108795;28;20149;-80
2022/01/09 08:32:33;;;;;;;8.90;1.60;;;5.00;99.90;;;;;;5116258;28;20035;-77
2022/01/09 08:35:00;;;;;;;11.73;1.97;;;5.10;99.90;;;;;;5114738;28;20468;-78
2022/01/09 08:37:26;;;;;;;9.97;1.80;;;5.20;99.90;;;;;;5116066;28;20020;-79
2022/01/09 08:39:51;;;;;;;8.53;1.30;;;5.20;99.90;;;;;;5097831;28;20096;-78
2022/01/09 08:42:17;;;;;;;15.60;2.47;;;5.20;99.90;;;;;;5114815;28;20032;-78
2022/01/09 08:44:43;;;;;;;14.57;2.10;;;5.20;99.90;;;;;;5097404;28;20418;-74
2022/01/09 08:47:09;;;;;;;10.67;1.73;;;5.30;99.90;;;;;;5097482;28;20031;-76
2022/01/09 08:49:36;;;;;;;15.97;1.87;;;5.30;99.90;;;;;;5114510;28;20100;-77
2022/01/09 08:52:02;;;;;;;15.50;2.17;;;5.30;99.90;;;;;;5098059;28;20019;-77
2022/01/09 08:54:29;;;;;;;12.67;1.97;;;5.30;99.90;;;;;;5113957;28;20027;-78
2022/01/09 08:56:55;;;;;;;12.20;1.77;;;5.40;99.90;;;;;;5097987;28;20054;-78
2022/01/09 08:59:21;;;;;;;10.47;1.67;;;5.40;99.90;;;;;;5097312;28;20480;-77
2022/01/09 09:01:47;;;;;;;15.80;1.73;;;5.30;99.70;;;;;;5113893;28;20020;-79
2022/01/09 09:04:14;;;;;;;11.57;1.53;;;5.20;99.60;;;;;;5115269;28;20099;-79
2022/01/09 09:06:39;;;;;;;12.57;1.93;;;5.30;99.60;;;;;;5114470;28;20019;-77
2022/01/09 09:09:06;;;;;;;11.40;1.80;;;5.40;99.50;;;;;;5115476;28;20020;-77
2022/01/09 09:11:32;;;;;;;10.33;1.77;;;5.40;99.50;;;;;;5113960;28;20015;-77
2022/01/09 09:13:58;;;;;;;8.10;1.80;;;5.60;99.50;;;;;;5114269;28;20479;-76
2022/01/09 09:16:24;;;;;;;10.57;1.10;;;5.50;99.50;;;;;;5097392;28;20490;-78
2022/01/09 09:18:50;;;;;;;10.17;1.20;;;5.50;99.40;;;;;;5114084;28;20026;-75
2022/01/09 09:21:16;;;;;;;7.63;0.90;;;5.60;99.40;;;;;;5096786;28;20081;-75
2022/01/09 09:23:42;;;;;;;12.93;1.53;;;5.70;99.50;;;;;;5080043;28;20019;-76
2022/01/09 09:26:09;;;;;;;13.47;1.90;;;5.70;99.20;;;;;;5113896;28;20022;-75
2022/01/09 09:28:36;;;;;;;13.33;1.17;;;5.80;99.50;;;;;;5113753;28;20019;-75
2022/01/09 09:31:02;;;;;;;11.53;1.47;;;5.90;99.00;;;;;;5113764;28;20479;-74
2022/01/09 09:33:28;;;;;;;12.10;1.47;;;6.00;98.70;;;;;;5076346;28;20051;-76
2022/01/09 09:35:54;;;;;;;11.60;1.70;;;6.00;98.60;;;;;;5076426;28;20035;-75
2022/01/09 09:38:19;;;;;;;9.60;1.67;;;6.10;98.40;;;;;;5076498;28;20360;-75
2022/01/09 09:40:45;;;;;;;8.20;1.40;;;6.00;98.40;;;;;;5059599;28;20028;-74
2022/01/09 09:43:11;;;;;;;13.33;1.53;;;6.10;98.60;;;;;;5093156;28;20376;-85
2022/01/09 09:45:37;;;;;;;13.13;2.57;;;6.10;98.30;;;;;;5059827;28;20036;-78
2022/01/09 09:48:03;;;;;;;13.27;2.20;;;6.10;98.20;;;;;;5076191;28;20952;-77
2022/01/09 09:50:29;;;;;;;21.93;4.27;;;6.10;98.40;;;;;;5076605;28;20024;-78
2022/01/09 09:52:55;;;;;;;10.70;1.80;;;6.10;98.40;;;;;;5097930;28;20031;-77
2022/01/09 09:55:21;;;;;;;17.67;3.17;;;6.20;98.50;;;;;;5096622;28;20032;-78
2022/01/09 09:57:47;;;;;;;8.43;1.87;;;6.20;98.50;;;;;;5095802;28;20069;-78
2022/01/09 10:00:18;;;;;;;16.57;1.97;;;6.20;98.40;;;;;;5113159;28;20050;-81
2022/01/09 10:02:50;;;;;;;11.53;2.30;;;6.10;98.30;;;;;;5113247;28;20038;-77
2022/01/09 10:05:21;;;;;;;17.30;2.30;;;6.20;98.30;;;;;;5114322;28;20026;-78
2022/01/09 10:07:47;;;;;;;13.93;2.17;;;6.20;98.50;;;;;;5113629;28;20016;-79
2022/01/09 10:10:20;;;;;;;14.10;2.17;;;6.30;98.30;;;;;;5096002;28;20118;-79
2022/01/09 10:12:51;;;;;;;15.07;2.73;;;6.30;98.60;;;;;;5112801;28;20023;-78
2022/01/09 10:15:20;;;;;;;15.47;2.83;;;6.20;98.40;;;;;;5113135;28;20471;-79
2022/01/09 10:17:48;;;;;;;17.70;2.43;;;6.20;98.80;;;;;;5095815;28;20487;-80
2022/01/09 10:20:19;;;;;;;13.63;1.97;;;6.10;99.10;;;;;;5112566;28;20391;-80
2022/01/09 10:22:53;;;;;;;10.70;2.17;;;6.10;99.30;;;;;;5095601;28;20039;-80
2022/01/09 10:25:21;;;;;;;11.35;2.22;;;6.10;99.70;;;;;;5113890;28;20027;-79
2022/01/09 10:27:54;;;;;;;12.63;2.30;;;6.10;99.90;;;;;;5112401;28;20028;-80
2022/01/09 10:30:26;;;;;;;11.37;2.10;;;6.20;99.90;;;;;;5112817;28;20036;-79
2022/01/09 10:32:58;;;;;;;6.50;1.80;;;6.40;99.90;;;;;;5112594;28;20072;-79
2022/01/09 10:35:26;;;;;;;12.03;1.83;;;6.50;99.90;;;;;;5112819;28;20027;-79
2022/01/09 10:38:08;;;;;;;14.13;2.00;;;6.60;99.90;;;;;;5112445;28;20078;-80
2022/01/09 10:40:36;;;;;;;18.40;1.90;;;6.80;99.90;;;;;;5112579;28;20035;-80
2022/01/09 10:43:08;;;;;;;14.83;2.47;;;6.90;99.70;;;;;;5108391;28;20024;-80
2022/01/09 10:45:40;;;;;;;9.43;1.70;;;7.00;99.50;;;;;;5092208;28;20034;-82
2022/01/09 10:48:16;;;;;;;15.07;2.77;;;7.00;99.40;;;;;;5092163;28;20357;-76
2022/01/09 10:50:42;;;;;;;16.20;2.50;;;7.20;99.30;;;;;;5095556;28;20476;-77
2022/01/09 10:53:19;;;;;;;22.40;2.20;;;7.20;99.00;;;;;;5084582;28;20534;-78
2022/01/09 10:55:48;;;;;;;13.53;1.83;;;7.30;98.60;;;;;;5095081;28;20030;-78
2022/01/09 10:58:17;;;;;;;22.43;2.40;;;7.30;98.30;;;;;;5113481;28;20064;-81
2022/01/09 11:00:43;;;;;;;14.17;1.83;;;7.40;98.60;;;;;;5112128;28;20123;-79
2022/01/09 11:03:09;;;;;;;13.00;1.60;;;7.60;99.20;;;;;;5111946;28;20177;-80
2022/01/09 11:05:35;;;;;;;13.73;1.97;;;8.00;99.80;;;;;;5112681;28;20012;-79
2022/01/09 11:08:02;;;;;;;26.33;2.03;;;8.30;98.60;;;;;;5095258;28;20118;-79
2022/01/09 11:10:29;;;;;;;13.00;1.27;;;8.80;99.40;;;;;;5095205;28;20062;-80
2022/01/09 11:12:58;;;;;;;9.95;1.70;;;9.30;99.00;;;;;;5112137;28;20061;-79
2022/01/09 11:15:29;;;;;;;11.55;1.67;;;9.70;96.80;;;;;;5113255;28;20019;-80
2022/01/09 11:18:01;;;;;;;12.63;2.17;;;10.00;96.20;;;;;;5113468;28;20103;-80
2022/01/09 11:20:27;;;;;;;10.82;1.55;;;10.20;95.00;;;;;;5112104;28;20538;-81
2022/01/09 11:22:58;;;;;;;9.98;1.55;;;10.40;93.90;;;;;;5095011;28;20116;-78
2022/01/09 11:25:40;;;;;;;9.75;1.08;;;10.50;92.80;;;;;;5113339;28;20023;-79
2022/01/09 11:28:18;;;;;;;9.77;1.23;;;10.70;93.00;;;;;;5116156;28;20016;-79
2022/01/09 11:31:12;;;;;;;7.20;1.10;;;11.00;93.20;;;;;;5117098;28;20102;-79
2022/01/09 11:34:12;;;;;;;10.95;1.92;;;11.30;91.50;;;;;;5115387;28;20031;-81
2022/01/09 11:37:00;;;;;;;12.50;1.92;;;11.40;89.50;;;;;;5112703;28;20035;-84
2022/01/09 11:39:35;;;;;;;9.43;1.67;;;11.40;86.10;;;;;;5115485;28;20114;-81
2022/01/09 11:42:14;;;;;;;7.15;1.00;;;11.20;84.30;;;;;;5117750;28;20019;-80
2022/01/09 11:44:50;;;;;;;12.35;1.38;;;11.00;83.50;;;;;;5119486;28;20015;-80
2022/01/09 11:47:17;;;;;;;8.95;1.50;;;10.70;81.90;;;;;;5115421;28;20027;-78
2022/01/09 11:49:56;;;;;;;14.07;1.38;;;10.40;82.00;;;;;;5096130;28;20031;-78
2022/01/09 11:52:27;;;;;;;9.55;1.38;;;10.10;82.40;;;;;;5117737;28;20058;-80
2022/01/09 11:54:59;;;;;;;11.87;1.80;;;9.80;83.10;;;;;;5115998;28;20026;-80
2022/01/09 11:57:45;;;;;;;10.77;1.20;;;9.50;83.50;;;;;;5115731;28;20039;-80
2022/01/09 12:00:31;;;;;;;8.45;1.00;;;9.50;85.10;;;;;;5115697;28;20023;-80
2022/01/09 12:02:57;;;;;;;7.25;1.20;;;9.80;87.60;;;;;;5115364;28;20053;-81
2022/01/09 12:05:23;;;;;;;11.13;1.30;;;10.20;87.60;;;;;;5115392;28;20061;-79
2022/01/09 12:07:48;;;;;;;5.57;1.17;;;10.60;86.60;;;;;;5098816;28;20024;-81
2022/01/09 12:10:17;;;;;;;9.57;1.63;;;10.70;85.40;;;;;;5117637;28;20065;-81
2022/01/09 12:12:43;;;;;;;7.35;1.13;;;10.90;85.10;;;;;;5115184;28;20035;-78
2022/01/09 12:15:09;;;;;;;9.07;1.70;;;11.20;83.40;;;;;;5115275;28;20015;-82
2022/01/09 12:17:39;;;;;;;6.82;1.02;;;11.10;81.50;;;;;;5115206;28;20024;-81
2022/01/09 12:20:26;;;;;;;11.05;1.42;;;11.00;81.30;;;;;;5114972;28;20023;-81
2022/01/09 12:23:02;;;;;;;11.88;1.80;;;11.10;83.40;;;;;;5116675;28;20518;-81
2022/01/09 12:25:33;;;;;;;11.55;1.30;;;11.20;81.70;;;;;;5114608;28;20043;-81
2022/01/09 12:28:14;;;;;;;8.85;1.40;;;11.00;80.50;;;;;;5095929;28;20070;-81
2022/01/09 12:30:43;;;;;;;8.43;1.08;;;10.90;81.20;;;;;;5099243;28;20386;-81
2022/01/09 12:33:10;;;;;;;13.05;1.85;;;11.10;82.60;;;;;;5111422;28;20146;-81
2022/01/09 12:35:38;;;;;;;10.18;1.27;;;11.60;82.70;;;;;;5113935;27;20383;-81
2022/01/09 12:38:05;;;;;;;10.35;1.42;;;12.00;83.00;;;;;;5110607;28;20419;-82
2022/01/09 12:40:40;;;;;;;10.63;1.15;;;12.50;81.20;;;;;;5094294;28;20111;-81
2022/01/09 12:43:07;;;;;;;10.30;1.15;;;12.90;80.70;;;;;;5078387;28;20438;-82
2022/01/09 12:45:35;;;;;;;9.15;1.27;;;13.40;78.70;;;;;;5111143;28;20380;-82
2022/01/09 12:48:03;;;;;;;5.93;0.90;;;13.90;78.50;;;;;;5095443;28;20031;-81
2022/01/09 12:50:32;;;;;;;7.47;1.33;;;14.30;76.90;;;;;;5094545;28;20028;-83
2022/01/09 12:53:14;;;;;;;10.00;1.30;;;14.80;75.10;;;;;;5094118;28;20059;-82